createdAt,value
2023-05-19T00:00:27.772Z,100
2023-05-19T00:01:27.772Z,100
2023-05-19T00:02:27.970Z,100
2023-05-19T00:03:27.784Z,100
2023-05-19T00:04:27.760Z,100
2023-05-19T00:05:29.029Z,100
2023-05-19T00:06:32.444Z,100
2023-05-19T00:07:33.903Z,100
2023-05-19T00:09:27.763Z,100
2023-05-19T00:10:27.809Z,100
2023-05-19T00:11:27.802Z,100
2023-05-19T00:12:27.760Z,100
2023-05-19T00:13:27.768Z,100
2023-05-19T00:14:27.792Z,100
2023-05-19T00:15:27.765Z,100
2023-05-19T00:16:27.874Z,100
2023-05-19T00:17:27.797Z,100
2023-05-19T00:18:27.760Z,100
2023-05-19T00:19:27.856Z,100
2023-05-19T00:20:27.769Z,100
2023-05-19T00:21:27.762Z,100
2023-05-19T00:22:27.749Z,100
2023-05-19T00:23:27.763Z,100
2023-05-19T00:24:27.800Z,100
2023-05-19T00:25:27.763Z,100
2023-05-19T00:26:29.035Z,100
2023-05-19T00:27:32.523Z,100
2023-05-19T00:28:33.935Z,100
2023-05-19T00:30:27.772Z,100
2023-05-19T00:31:27.824Z,100
2023-05-19T00:32:27.786Z,100
2023-05-19T00:33:27.759Z,100
2023-05-19T00:34:27.778Z,100
2023-05-19T00:35:27.761Z,100
2023-05-19T00:36:27.794Z,100
2023-05-19T00:37:27.774Z,100
2023-05-19T00:38:27.784Z,100
2023-05-19T00:39:27.762Z,100
2023-05-19T00:40:27.782Z,100
2023-05-19T00:41:27.814Z,100
2023-05-19T00:42:27.759Z,100
2023-05-19T00:43:27.759Z,100
2023-05-19T00:44:27.769Z,100
2023-05-19T00:45:27.767Z,100
2023-05-19T00:46:27.812Z,100
2023-05-19T00:47:27.778Z,100
2023-05-19T00:48:29.114Z,100
2023-05-19T00:49:32.638Z,100
2023-05-19T00:50:35.064Z,100
2023-05-19T00:52:27.755Z,100
2023-05-19T00:53:27.782Z,100
2023-05-19T00:54:27.765Z,100
2023-05-19T00:55:27.758Z,100
2023-05-19T00:56:27.778Z,100
2023-05-19T00:57:27.755Z,100
2023-05-19T00:58:27.808Z,100
2023-05-19T00:59:27.763Z,100
2023-05-19T01:00:27.769Z,100
2023-05-19T01:01:27.839Z,100
2023-05-19T01:02:27.802Z,100
2023-05-19T01:03:27.848Z,100
2023-05-19T01:04:27.769Z,100
2023-05-19T01:05:27.778Z,100
2023-05-19T01:06:27.757Z,100
2023-05-19T01:07:27.750Z,100
2023-05-19T01:08:27.799Z,100
2023-05-19T01:09:29.780Z,100
2023-05-19T01:10:33.035Z,100
2023-05-19T01:11:34.985Z,100
2023-05-19T01:13:27.788Z,100
2023-05-19T01:14:27.762Z,100
2023-05-19T01:15:27.763Z,100
2023-05-19T01:16:27.770Z,100
2023-05-19T01:17:27.816Z,100
2023-05-19T01:18:27.788Z,100
2023-05-19T01:19:27.795Z,100
2023-05-19T01:20:27.767Z,100
2023-05-19T01:21:27.765Z,100
2023-05-19T01:22:27.754Z,100
2023-05-19T01:23:27.778Z,100
2023-05-19T01:24:28.753Z,100
2023-05-19T01:26:27.758Z,100
2023-05-19T01:27:27.762Z,100
2023-05-19T01:28:27.760Z,100
2023-05-19T01:29:27.762Z,100
2023-05-19T01:30:29.391Z,100
2023-05-19T01:31:32.897Z,100
2023-05-19T01:32:35.133Z,100
2023-05-19T01:34:27.883Z,100
2023-05-19T01:35:27.767Z,100
2023-05-19T01:36:27.783Z,100
2023-05-19T01:37:27.867Z,100
2023-05-19T01:38:27.770Z,100
2023-05-19T01:39:27.758Z,100
2023-05-19T01:40:27.776Z,100
2023-05-19T01:41:27.759Z,100
2023-05-19T01:42:27.759Z,100
2023-05-19T01:43:27.775Z,100
2023-05-19T01:44:27.763Z,100
2023-05-19T01:45:27.764Z,100
2023-05-19T01:46:27.825Z,100
2023-05-19T01:47:27.767Z,100
2023-05-19T01:48:27.768Z,100
2023-05-19T01:49:27.766Z,100
2023-05-19T01:50:27.774Z,100
2023-05-19T01:51:29.386Z,100
2023-05-19T01:52:32.970Z,100
2023-05-19T01:53:35.132Z,100
2023-05-19T01:55:27.884Z,100
2023-05-19T01:56:27.774Z,100
2023-05-19T01:57:27.758Z,100
2023-05-19T01:58:27.764Z,100
2023-05-19T01:59:27.770Z,100
2023-05-19T02:00:27.792Z,100
2023-05-19T02:01:27.827Z,100
2023-05-19T02:02:27.799Z,100
2023-05-19T02:03:27.774Z,100
2023-05-19T02:04:27.779Z,100
2023-05-19T02:05:27.794Z,100
2023-05-19T02:06:27.770Z,100
2023-05-19T02:07:27.768Z,100
2023-05-19T02:08:27.771Z,100
2023-05-19T02:09:27.764Z,100
2023-05-19T02:10:27.774Z,100
2023-05-19T02:11:27.766Z,100
2023-05-19T02:12:29.518Z,100
2023-05-19T02:13:33.076Z,100
2023-05-19T02:14:35.237Z,100
2023-05-19T02:16:27.881Z,100
2023-05-19T02:17:27.780Z,100
2023-05-19T02:18:27.760Z,100
2023-05-19T02:19:27.860Z,100
2023-05-19T02:20:27.780Z,100
2023-05-19T02:21:27.769Z,100
2023-05-19T02:22:27.749Z,100
2023-05-19T02:23:27.807Z,100
2023-05-19T02:24:27.760Z,100
2023-05-19T02:25:27.805Z,100
2023-05-19T02:26:27.776Z,100
2023-05-19T02:27:27.758Z,100
2023-05-19T02:28:27.778Z,100
2023-05-19T02:29:27.763Z,100
2023-05-19T02:30:27.799Z,100
2023-05-19T02:31:27.779Z,100
2023-05-19T02:32:27.826Z,100
2023-05-19T02:33:29.645Z,100
2023-05-19T02:34:33.227Z,100
2023-05-19T02:35:35.396Z,100
2023-05-19T02:37:27.768Z,100
2023-05-19T02:38:27.760Z,100
2023-05-19T02:39:27.764Z,100
2023-05-19T02:40:27.780Z,100
2023-05-19T02:41:27.766Z,100
2023-05-19T02:42:27.758Z,100
2023-05-19T02:43:27.768Z,100
2023-05-19T02:44:27.764Z,100
2023-05-19T02:45:27.780Z,100
2023-05-19T02:46:27.796Z,100
2023-05-19T02:47:27.868Z,100
2023-05-19T02:48:27.753Z,100
2023-05-19T02:49:27.764Z,100
2023-05-19T02:50:27.838Z,100
2023-05-19T02:51:27.773Z,100
2023-05-19T02:52:27.760Z,100
2023-05-19T02:53:27.768Z,100
2023-05-19T02:54:29.720Z,100
2023-05-19T02:55:32.735Z,100
2023-05-19T02:56:35.454Z,100
2023-05-19T02:58:27.773Z,100
2023-05-19T02:59:27.758Z,100
2023-05-19T03:00:27.795Z,100
2023-05-19T03:01:27.786Z,100
2023-05-19T03:02:27.870Z,100
2023-05-19T03:03:27.788Z,100
2023-05-19T03:04:27.769Z,100
2023-05-19T03:05:27.960Z,100
2023-05-19T03:06:27.772Z,100
2023-05-19T03:07:27.756Z,100
2023-05-19T03:08:27.764Z,100
2023-05-19T03:09:27.761Z,100
2023-05-19T03:10:27.772Z,100
2023-05-19T03:11:27.776Z,100
2023-05-19T03:12:27.755Z,100
2023-05-19T03:13:27.755Z,100
2023-05-19T03:14:27.749Z,100
2023-05-19T03:15:29.804Z,100
2023-05-19T03:16:32.924Z,100
2023-05-19T03:17:35.667Z,100
2023-05-19T03:19:27.810Z,100
2023-05-19T03:20:27.770Z,100
2023-05-19T03:21:27.775Z,100
2023-05-19T03:22:27.764Z,100
2023-05-19T03:23:27.764Z,100
2023-05-19T03:24:27.764Z,100
2023-05-19T03:25:27.770Z,100
2023-05-19T03:26:27.786Z,100
2023-05-19T03:27:27.759Z,100
2023-05-19T03:28:27.769Z,100
2023-05-19T03:29:27.781Z,100
2023-05-19T03:30:27.763Z,100
2023-05-19T03:31:27.782Z,100
2023-05-19T03:32:27.892Z,100
2023-05-19T03:33:27.860Z,100
2023-05-19T03:34:27.766Z,100
2023-05-19T03:35:27.775Z,100
2023-05-19T03:36:29.855Z,100
2023-05-19T03:37:32.927Z,100
2023-05-19T03:38:35.633Z,100
2023-05-19T03:40:27.769Z,100
2023-05-19T03:41:27.788Z,100
2023-05-19T03:42:27.759Z,100
2023-05-19T03:43:27.764Z,100
2023-05-19T03:44:27.775Z,100
2023-05-19T03:45:27.829Z,100
2023-05-19T03:46:27.838Z,100
2023-05-19T03:47:27.788Z,100
2023-05-19T03:48:27.764Z,100
2023-05-19T03:49:27.765Z,100
2023-05-19T03:50:27.766Z,100
2023-05-19T03:51:27.795Z,100
2023-05-19T03:52:27.768Z,100
2023-05-19T03:53:27.781Z,100
2023-05-19T03:54:27.779Z,100
2023-05-19T03:55:27.782Z,100
2023-05-19T03:56:27.779Z,100
2023-05-19T03:57:27.903Z,100
2023-05-19T03:58:30.597Z,100
2023-05-19T03:59:33.123Z,100
2023-05-19T04:00:32.526Z,100
2023-05-19T04:01:27.822Z,100
2023-05-19T04:02:27.797Z,100
2023-05-19T04:03:27.791Z,100
2023-05-19T04:04:27.788Z,100
2023-05-19T04:05:27.771Z,100
2023-05-19T04:06:27.835Z,100
2023-05-19T04:07:27.767Z,100
2023-05-19T04:08:27.786Z,100
2023-05-19T04:09:27.767Z,100
2023-05-19T04:10:27.763Z,100
2023-05-19T04:11:27.777Z,100
2023-05-19T04:12:27.838Z,100
2023-05-19T04:13:28.020Z,100
2023-05-19T04:14:27.778Z,100
2023-05-19T04:15:27.766Z,100
2023-05-19T04:16:27.903Z,100
2023-05-19T04:17:27.835Z,100
2023-05-19T04:18:29.277Z,100
2023-05-19T04:19:30.246Z,100
2023-05-19T04:20:33.346Z,100
2023-05-19T04:21:34.104Z,100
2023-05-19T04:22:27.778Z,100
2023-05-19T04:23:27.774Z,100
2023-05-19T04:24:27.771Z,100
2023-05-19T04:25:27.768Z,100
2023-05-19T04:26:27.816Z,100
2023-05-19T04:27:27.784Z,100
2023-05-19T04:28:27.780Z,100
2023-05-19T04:29:27.771Z,100
2023-05-19T04:30:27.763Z,100
2023-05-19T04:31:27.799Z,100
2023-05-19T04:32:27.769Z,100
2023-05-19T04:33:27.777Z,100
2023-05-19T04:34:27.780Z,100
2023-05-19T04:35:27.761Z,100
2023-05-19T04:36:27.867Z,100
2023-05-19T04:37:27.767Z,100
2023-05-19T04:38:27.763Z,100
2023-05-19T04:39:28.120Z,100
2023-05-19T04:40:31.083Z,100
2023-05-19T04:41:33.307Z,100
2023-05-19T04:42:34.232Z,100
2023-05-19T04:43:27.782Z,100
2023-05-19T04:44:27.810Z,100
2023-05-19T04:45:27.790Z,100
2023-05-19T04:46:27.776Z,100
2023-05-19T04:47:27.796Z,100
2023-05-19T04:48:27.780Z,100
2023-05-19T04:49:27.766Z,100
2023-05-19T04:50:27.775Z,100
2023-05-19T04:51:28.750Z,100
2023-05-19T04:52:27.791Z,100
2023-05-19T04:53:27.784Z,100
2023-05-19T04:54:27.775Z,100
2023-05-19T04:55:27.771Z,100
2023-05-19T04:56:27.765Z,100
2023-05-19T04:57:27.765Z,100
2023-05-19T04:58:27.799Z,100
2023-05-19T04:59:28.040Z,100
2023-05-19T05:00:28.048Z,100
2023-05-19T05:01:30.984Z,100
2023-05-19T05:02:33.385Z,100
2023-05-19T05:03:34.335Z,100
2023-05-19T05:04:27.776Z,100
2023-05-19T05:05:27.868Z,100
2023-05-19T05:06:27.773Z,100
2023-05-19T05:07:28.300Z,100
2023-05-19T05:08:27.881Z,100
2023-05-19T05:09:27.769Z,100
2023-05-19T05:10:27.763Z,100
2023-05-19T05:11:27.777Z,100
2023-05-19T05:12:27.774Z,100
2023-05-19T05:13:27.774Z,100
2023-05-19T05:14:27.754Z,100
2023-05-19T05:15:27.770Z,100
2023-05-19T05:16:27.802Z,100
2023-05-19T05:17:27.820Z,100
2023-05-19T05:18:27.783Z,100
2023-05-19T05:19:27.835Z,100
2023-05-19T05:20:27.761Z,100
2023-05-19T05:21:28.193Z,100
2023-05-19T05:22:30.991Z,100
2023-05-19T05:23:33.410Z,100
2023-05-19T05:24:34.374Z,100
2023-05-19T05:25:27.763Z,100
2023-05-19T05:26:27.918Z,100
2023-05-19T05:27:27.760Z,100
2023-05-19T05:28:27.798Z,100
2023-05-19T05:29:27.868Z,100
2023-05-19T05:30:27.768Z,100
2023-05-19T05:31:27.769Z,100
2023-05-19T05:32:27.860Z,100
2023-05-19T05:33:27.831Z,100
2023-05-19T05:34:27.752Z,100
2023-05-19T05:35:27.764Z,100
2023-05-19T05:36:27.771Z,100
2023-05-19T05:37:27.760Z,100
2023-05-19T05:38:27.782Z,100
2023-05-19T05:39:27.820Z,100
2023-05-19T05:40:27.754Z,100
2023-05-19T05:41:27.764Z,100
2023-05-19T05:42:29.681Z,100
2023-05-19T05:43:31.121Z,100
2023-05-19T05:44:33.577Z,100
2023-05-19T05:45:34.655Z,100
2023-05-19T05:46:27.811Z,100
2023-05-19T05:47:27.766Z,100
2023-05-19T05:48:27.767Z,100
2023-05-19T05:49:27.792Z,100
2023-05-19T05:50:27.760Z,100
2023-05-19T05:51:27.768Z,100
2023-05-19T05:52:27.751Z,100
2023-05-19T05:53:27.813Z,100
2023-05-19T05:54:27.778Z,100
2023-05-19T05:55:27.762Z,100
2023-05-19T05:56:27.786Z,100
2023-05-19T05:57:27.849Z,100
2023-05-19T05:58:27.764Z,100
2023-05-19T05:59:27.775Z,100
2023-05-19T06:00:27.760Z,100
2023-05-19T06:01:27.929Z,100
2023-05-19T06:02:28.032Z,100
2023-05-19T06:03:27.785Z,100
2023-05-19T06:04:29.495Z,100
2023-05-19T06:05:32.601Z,100
2023-05-19T06:06:33.362Z,100
2023-05-19T06:07:27.762Z,100
2023-05-19T06:08:27.774Z,100
2023-05-19T06:09:27.792Z,100
2023-05-19T06:10:27.771Z,100
2023-05-19T06:11:27.766Z,100
2023-05-19T06:12:27.762Z,100
2023-05-19T06:13:27.765Z,100
2023-05-19T06:14:27.787Z,100
2023-05-19T06:15:27.776Z,100
2023-05-19T06:16:27.793Z,100
2023-05-19T06:17:27.774Z,100
2023-05-19T06:18:27.775Z,100
2023-05-19T06:19:27.851Z,100
2023-05-19T06:20:27.785Z,100
2023-05-19T06:21:27.769Z,100
2023-05-19T06:22:27.763Z,100
2023-05-19T06:23:27.763Z,100
2023-05-19T06:24:28.370Z,100
2023-05-19T06:25:31.434Z,100
2023-05-19T06:26:33.804Z,100
2023-05-19T06:27:34.949Z,100
2023-05-19T06:28:27.771Z,100
2023-05-19T06:29:27.790Z,100
2023-05-19T06:30:27.762Z,100
2023-05-19T06:31:27.776Z,100
2023-05-19T06:32:27.758Z,100
2023-05-19T06:33:30.797Z,100
2023-05-19T06:35:27.776Z,100
2023-05-19T06:36:27.757Z,100
2023-05-19T06:37:27.750Z,100
2023-05-19T06:38:27.761Z,100
2023-05-19T06:39:27.768Z,100
2023-05-19T06:40:27.768Z,100
2023-05-19T06:41:27.780Z,100
2023-05-19T06:42:27.838Z,100
2023-05-19T06:43:27.766Z,100
2023-05-19T06:44:27.764Z,100
2023-05-19T06:45:28.187Z,100
2023-05-19T06:46:31.478Z,100
2023-05-19T06:47:33.997Z,100
2023-05-19T06:48:34.848Z,100
2023-05-19T06:49:27.765Z,100
2023-05-19T06:50:27.800Z,100
2023-05-19T06:51:27.767Z,100
2023-05-19T06:52:27.777Z,100
2023-05-19T06:53:27.771Z,100
2023-05-19T06:54:27.761Z,100
2023-05-19T06:55:27.780Z,100
2023-05-19T06:56:27.757Z,100
2023-05-19T06:57:27.766Z,100
2023-05-19T06:58:27.840Z,100
2023-05-19T06:59:27.769Z,100
2023-05-19T07:00:27.773Z,100
2023-05-19T07:01:27.932Z,100
2023-05-19T07:02:27.824Z,100
2023-05-19T07:03:27.851Z,100
2023-05-19T07:04:27.775Z,100
2023-05-19T07:05:27.763Z,100
2023-05-19T07:06:28.255Z,100
2023-05-19T07:07:31.475Z,100
2023-05-19T07:08:29.723Z,100
2023-05-19T07:09:34.524Z,100
2023-05-19T07:11:27.766Z,100
2023-05-19T07:12:27.763Z,100
2023-05-19T07:13:30.789Z,100
2023-05-19T07:14:27.761Z,100
2023-05-19T07:15:27.782Z,100
2023-05-19T07:16:27.829Z,100
2023-05-19T07:17:27.795Z,100
2023-05-19T07:18:27.776Z,100
2023-05-19T07:19:27.865Z,100
2023-05-19T07:20:27.759Z,100
2023-05-19T07:21:27.785Z,100
2023-05-19T07:22:27.759Z,100
2023-05-19T07:23:27.769Z,100
2023-05-19T07:24:27.768Z,100
2023-05-19T07:25:27.780Z,100
2023-05-19T07:26:27.762Z,100
2023-05-19T07:27:27.754Z,100
2023-05-19T07:28:28.337Z,100
2023-05-19T07:29:31.669Z,100
2023-05-19T07:30:34.880Z,100
2023-05-19T07:32:27.817Z,100
2023-05-19T07:33:27.758Z,100
2023-05-19T07:34:27.794Z,100
2023-05-19T07:35:27.764Z,100
2023-05-19T07:36:27.786Z,100
2023-05-19T07:37:27.828Z,100
2023-05-19T07:38:27.798Z,100
2023-05-19T07:39:27.776Z,100
2023-05-19T07:40:27.816Z,100
2023-05-19T07:41:27.778Z,100
2023-05-19T07:42:27.754Z,100
2023-05-19T07:43:27.770Z,100
2023-05-19T07:44:27.764Z,100
2023-05-19T07:45:27.768Z,100
2023-05-19T07:46:27.926Z,100
2023-05-19T07:47:27.773Z,100
2023-05-19T07:48:27.760Z,100
2023-05-19T07:49:28.480Z,100
2023-05-19T07:50:31.987Z,100
2023-05-19T07:51:34.295Z,100
2023-05-19T07:53:27.771Z,100
2023-05-19T07:54:27.772Z,100
2023-05-19T07:55:27.767Z,100
2023-05-19T07:56:27.784Z,100
2023-05-19T07:57:27.763Z,100
2023-05-19T07:58:27.759Z,100
2023-05-19T07:59:27.765Z,100
2023-05-19T08:00:27.759Z,100
2023-05-19T08:01:27.772Z,100
2023-05-19T08:02:27.813Z,100
2023-05-19T08:03:27.935Z,100
2023-05-19T08:04:27.792Z,100
2023-05-19T08:05:27.986Z,100
2023-05-19T08:06:27.766Z,100
2023-05-19T08:07:27.761Z,100
2023-05-19T08:08:27.764Z,100
2023-05-19T08:09:27.760Z,100
2023-05-19T08:10:28.503Z,100
2023-05-19T08:11:31.957Z,100
2023-05-19T08:12:34.965Z,100
2023-05-19T08:14:27.820Z,100
2023-05-19T08:15:27.857Z,100
2023-05-19T08:16:28.028Z,100
2023-05-19T08:17:27.773Z,100
2023-05-19T08:18:27.760Z,100
2023-05-19T08:19:27.848Z,100
2023-05-19T08:20:27.755Z,100
2023-05-19T08:21:27.785Z,100
2023-05-19T08:22:27.777Z,100
2023-05-19T08:23:27.787Z,100
2023-05-19T08:24:27.798Z,100
2023-05-19T08:25:27.991Z,100
2023-05-19T08:26:27.765Z,100
2023-05-19T08:27:27.766Z,100
2023-05-19T08:28:27.787Z,100
2023-05-19T08:29:27.785Z,100
2023-05-19T08:30:27.772Z,100
2023-05-19T08:31:28.567Z,100
2023-05-19T08:32:32.006Z,100
2023-05-19T08:33:35.036Z,100
2023-05-19T08:35:27.784Z,100
2023-05-19T08:36:27.783Z,100
2023-05-19T08:37:27.757Z,100
2023-05-19T08:38:27.771Z,100
2023-05-19T08:39:27.947Z,100
2023-05-19T08:40:27.776Z,100
2023-05-19T08:41:27.777Z,100
2023-05-19T08:42:27.763Z,100
2023-05-19T08:43:27.771Z,100
2023-05-19T08:44:27.786Z,100
2023-05-19T08:45:27.776Z,100
2023-05-19T08:46:27.803Z,100
2023-05-19T08:47:27.773Z,100
2023-05-19T08:48:27.769Z,100
2023-05-19T08:49:27.767Z,100
2023-05-19T08:50:27.759Z,100
2023-05-19T08:51:27.755Z,100
2023-05-19T08:52:28.702Z,100
2023-05-19T08:53:34.506Z,100
2023-05-19T08:54:35.153Z,100
2023-05-19T08:56:27.763Z,100
2023-05-19T08:57:27.775Z,100
2023-05-19T08:58:29.767Z,100
2023-05-19T08:59:27.773Z,100
2023-05-19T09:00:27.763Z,100
2023-05-19T09:01:27.773Z,100
2023-05-19T09:02:27.841Z,100
2023-05-19T09:03:27.847Z,100
2023-05-19T09:04:31.896Z,100
2023-05-19T09:05:27.845Z,100
2023-05-19T09:06:27.840Z,100
2023-05-19T09:07:27.765Z,100
2023-05-19T09:08:27.774Z,100
2023-05-19T09:09:27.781Z,100
2023-05-19T09:10:29.260Z,100
2023-05-19T09:11:27.764Z,100
2023-05-19T09:12:27.755Z,100
2023-05-19T09:13:28.793Z,100
2023-05-19T09:14:32.363Z,100
2023-05-19T09:15:35.436Z,100
2023-05-19T09:17:27.793Z,100
2023-05-19T09:18:27.775Z,100
2023-05-19T09:19:27.813Z,98.86
2023-05-19T09:20:27.767Z,97.42
2023-05-19T09:21:27.786Z,98.21
2023-05-19T09:22:27.772Z,97.73
2023-05-19T09:23:27.754Z,98.82
2023-05-19T09:24:27.765Z,98.9
2023-05-19T09:25:27.767Z,100
2023-05-19T09:26:27.776Z,100
2023-05-19T09:27:27.791Z,98.63
2023-05-19T09:28:27.758Z,96.84
2023-05-19T09:29:27.756Z,97.32
2023-05-19T09:30:27.763Z,97.96
2023-05-19T09:31:27.869Z,98.98
2023-05-19T09:32:27.866Z,97.83
2023-05-19T09:33:27.787Z,100
2023-05-19T09:34:28.831Z,98.93
2023-05-19T09:35:32.491Z,98.17
2023-05-19T09:36:35.269Z,99.56
2023-05-19T09:38:27.788Z,91.07
2023-05-19T09:39:27.774Z,93.75
2023-05-19T09:40:27.763Z,93.01
2023-05-19T09:41:27.768Z,92.11
2023-05-19T09:42:27.758Z,92.3
2023-05-19T09:43:27.777Z,94.57
2023-05-19T09:44:27.788Z,96.34
2023-05-19T09:45:27.765Z,91.43
2023-05-19T09:46:27.816Z,92.41
2023-05-19T09:47:27.854Z,93.64
2023-05-19T09:48:28.064Z,94.45
2023-05-19T09:49:27.756Z,94.99
2023-05-19T09:50:27.747Z,95.05
2023-05-19T09:51:27.769Z,91.86
2023-05-19T09:52:27.868Z,91.51
2023-05-19T09:53:27.764Z,93.05
2023-05-19T09:54:27.762Z,93.42
2023-05-19T09:55:28.934Z,92.81
2023-05-19T09:56:32.413Z,92.9
2023-05-19T09:57:35.599Z,93.15
2023-05-19T09:59:30.649Z,94.88
2023-05-19T10:00:27.799Z,93.5
2023-05-19T10:01:27.768Z,91.76
2023-05-19T10:02:27.823Z,90.45
2023-05-19T10:03:27.753Z,91.18
2023-05-19T10:04:27.831Z,90.22
2023-05-19T10:05:27.804Z,91.08
2023-05-19T10:06:27.770Z,89.5
2023-05-19T10:07:27.763Z,85.38
2023-05-19T10:08:27.754Z,88.32
2023-05-19T10:09:27.787Z,91.47
2023-05-19T10:10:27.768Z,91.41
2023-05-19T10:11:27.773Z,87.61
2023-05-19T10:12:27.763Z,87.25
2023-05-19T10:13:27.946Z,86.58
2023-05-19T10:14:27.752Z,83.67
2023-05-19T10:15:27.754Z,85.76
2023-05-19T10:16:29.080Z,86.03
2023-05-19T10:17:32.562Z,87.45
2023-05-19T10:18:33.946Z,85.15
2023-05-19T10:20:27.788Z,88.79
2023-05-19T10:21:27.760Z,85.12
2023-05-19T10:22:27.784Z,84.64
2023-05-19T10:23:27.773Z,84.5
2023-05-19T10:24:27.799Z,82.41
2023-05-19T10:25:27.768Z,84.47
2023-05-19T10:26:27.789Z,79.55
2023-05-19T10:27:27.756Z,79.07
2023-05-19T10:28:27.783Z,76.39
2023-05-19T10:29:27.769Z,75.01
2023-05-19T10:30:27.773Z,74.17
2023-05-19T10:31:27.785Z,76.66
2023-05-19T10:32:27.844Z,78.47
2023-05-19T10:33:27.778Z,83.3
2023-05-19T10:34:27.922Z,81.48
2023-05-19T10:35:27.764Z,78.28
2023-05-19T10:36:27.762Z,78.1
2023-05-19T10:37:29.080Z,77.35
2023-05-19T10:38:32.574Z,76.76
2023-05-19T10:40:33.872Z,75.9
2023-05-19T10:42:27.758Z,79.15
2023-05-19T10:43:27.818Z,75.87
2023-05-19T10:44:27.790Z,77.87
2023-05-19T10:45:27.770Z,76.94
2023-05-19T10:46:27.783Z,75.97
2023-05-19T10:47:27.767Z,77.7
2023-05-19T10:48:27.761Z,77.14
2023-05-19T10:49:27.814Z,75.7
2023-05-19T10:50:28.818Z,78.21
2023-05-19T10:51:27.755Z,77.93
2023-05-19T10:52:27.789Z,78.07
2023-05-19T10:53:27.763Z,77.12
2023-05-19T10:54:27.801Z,74.38
2023-05-19T10:55:27.776Z,73.79
2023-05-19T10:56:27.769Z,74.32
2023-05-19T10:57:27.765Z,76.04
2023-05-19T10:58:27.807Z,77.48
2023-05-19T10:59:30.339Z,75.91
2023-05-19T11:00:31.906Z,75.57
2023-05-19T11:01:34.634Z,77.52
2023-05-19T11:03:27.789Z,74.91
2023-05-19T11:04:27.817Z,78.65
2023-05-19T11:05:27.773Z,76.66
2023-05-19T11:06:27.797Z,75.46
2023-05-19T11:07:27.810Z,72.65
2023-05-19T11:08:27.765Z,74.82
2023-05-19T11:09:39.831Z,74.25
2023-05-19T11:11:27.783Z,74.42
2023-05-19T11:12:27.756Z,77.36
2023-05-19T11:13:28.829Z,76.54
2023-05-19T11:14:27.768Z,75.56
2023-05-19T11:15:27.780Z,73.36
2023-05-19T11:16:27.797Z,76.2
2023-05-19T11:17:27.796Z,76.56
2023-05-19T11:18:27.777Z,77.43
2023-05-19T11:19:27.824Z,77.38
2023-05-19T11:20:29.457Z,75.66
2023-05-19T11:21:33.037Z,74.17
2023-05-19T11:22:35.132Z,76.91
2023-05-19T11:24:27.767Z,76.86
2023-05-19T11:25:27.776Z,75.65
2023-05-19T11:26:27.764Z,75.68
2023-05-19T11:27:27.819Z,77.02
2023-05-19T11:28:27.788Z,77.27
2023-05-19T11:29:27.758Z,77.67
2023-05-19T11:30:27.771Z,75.09
2023-05-19T11:31:27.814Z,74.21
2023-05-19T11:32:27.840Z,72.83
2023-05-19T11:33:27.938Z,74.99
2023-05-19T11:34:27.957Z,72.13
2023-05-19T11:35:27.786Z,72.1
2023-05-19T11:36:27.757Z,71.8
2023-05-19T11:37:27.763Z,71.69
2023-05-19T11:38:27.837Z,74.37
2023-05-19T11:39:27.887Z,71.4
2023-05-19T11:40:27.925Z,71.29
2023-05-19T11:41:29.471Z,70.57
2023-05-19T11:42:33.001Z,69.68
2023-05-19T11:43:35.134Z,69.21
2023-05-19T11:45:27.800Z,71.01
2023-05-19T11:46:27.816Z,70.9
2023-05-19T11:47:27.798Z,71.08
2023-05-19T11:48:27.841Z,72.02
2023-05-19T11:49:27.752Z,71.78
2023-05-19T11:50:27.765Z,73.19
2023-05-19T11:51:27.784Z,73.57
2023-05-19T11:52:27.883Z,72.41
2023-05-19T11:53:27.780Z,70.59
2023-05-19T11:54:27.834Z,69.92
2023-05-19T11:55:27.830Z,70.96
2023-05-19T11:56:27.772Z,70.23
2023-05-19T11:57:28.040Z,67.52
2023-05-19T11:58:27.915Z,66.72
2023-05-19T11:59:27.980Z,66.57
2023-05-19T12:00:27.765Z,66.42
2023-05-19T12:01:28.146Z,68.12
2023-05-19T12:02:29.746Z,69.56
2023-05-19T12:03:32.629Z,69.22
2023-05-19T12:04:35.248Z,70.78
2023-05-19T12:06:27.814Z,71.72
2023-05-19T12:07:27.752Z,70
2023-05-19T12:08:27.764Z,70.67
2023-05-19T12:09:27.794Z,71.11
2023-05-19T12:10:27.763Z,73.95
2023-05-19T12:11:27.778Z,69.68
2023-05-19T12:12:27.760Z,67.93
2023-05-19T12:13:27.872Z,69.01
2023-05-19T12:14:27.833Z,69.83
2023-05-19T12:15:27.762Z,71.38
2023-05-19T12:16:27.846Z,69.98
2023-05-19T12:17:27.783Z,71.36
2023-05-19T12:18:27.761Z,72.28
2023-05-19T12:19:27.892Z,72.55
2023-05-19T12:20:27.755Z,72.54
2023-05-19T12:21:34.518Z,73.66
2023-05-19T12:23:29.572Z,73.64
2023-05-19T12:24:32.744Z,75.46
2023-05-19T12:25:35.687Z,75.99
2023-05-19T12:27:27.758Z,76.15
2023-05-19T12:28:27.771Z,73.2
2023-05-19T12:29:28.187Z,73.74
2023-05-19T12:30:27.796Z,72.44
2023-05-19T12:31:27.786Z,71.02
2023-05-19T12:32:27.847Z,71.84
2023-05-19T12:33:27.765Z,70.87
2023-05-19T12:34:27.769Z,70.36
2023-05-19T12:35:27.816Z,72.48
2023-05-19T12:36:27.776Z,68.84
2023-05-19T12:37:27.852Z,67.73
2023-05-19T12:38:27.764Z,68.4
2023-05-19T12:39:28.106Z,70.55
2023-05-19T12:40:27.802Z,70.66
2023-05-19T12:41:27.767Z,69.78
2023-05-19T12:42:27.756Z,69.87
2023-05-19T12:43:27.776Z,69.07
2023-05-19T12:44:29.880Z,72.57
2023-05-19T12:45:32.958Z,73.65
2023-05-19T12:46:35.563Z,70.08
2023-05-19T12:48:27.767Z,69.51
2023-05-19T12:49:27.775Z,69.45
2023-05-19T12:50:27.767Z,70.69
2023-05-19T12:51:27.758Z,71
2023-05-19T12:52:27.783Z,69.98
2023-05-19T12:53:27.769Z,69.63
2023-05-19T12:54:27.825Z,68.24
2023-05-19T12:55:27.777Z,67.81
2023-05-19T12:56:27.768Z,68.22
2023-05-19T12:57:27.759Z,68.77
2023-05-19T12:58:27.760Z,68.22
2023-05-19T12:59:38.262Z,67.31
2023-05-19T13:01:27.946Z,68.86
2023-05-19T13:02:27.809Z,69.03
2023-05-19T13:03:27.928Z,71.51
2023-05-19T13:04:27.772Z,68.71
2023-05-19T13:05:29.995Z,69.62
2023-05-19T13:06:32.972Z,69.16
2023-05-19T13:07:35.591Z,69.66
2023-05-19T13:09:27.766Z,70.62
2023-05-19T13:10:27.775Z,71
2023-05-19T13:11:27.759Z,67.86
2023-05-19T13:12:27.760Z,67.88
2023-05-19T13:13:27.784Z,67.85
2023-05-19T13:14:27.764Z,67.8
2023-05-19T13:15:27.773Z,71.86
2023-05-19T13:16:27.798Z,69.79
2023-05-19T13:17:27.774Z,68.03
2023-05-19T13:18:27.759Z,66.99
2023-05-19T13:19:27.816Z,65.87
2023-05-19T13:20:30.971Z,68.22
2023-05-19T13:22:27.766Z,67.17
2023-05-19T13:23:27.751Z,63.84
2023-05-19T13:24:27.764Z,64.71
2023-05-19T13:25:27.774Z,63.67
2023-05-19T13:26:30.052Z,65.08
2023-05-19T13:27:33.011Z,65.95
2023-05-19T13:28:34.421Z,65.45
2023-05-19T13:29:27.762Z,65.74
2023-05-19T13:30:27.763Z,65.73
2023-05-19T13:31:27.821Z,68.32
2023-05-19T13:32:27.755Z,69.2
2023-05-19T13:33:27.763Z,68.61
2023-05-19T13:34:27.766Z,67.8
2023-05-19T13:35:27.790Z,69.3
2023-05-19T13:36:27.776Z,69.28
2023-05-19T13:37:27.762Z,68.3
2023-05-19T13:38:27.771Z,64.27
2023-05-19T13:39:27.764Z,63.88
2023-05-19T13:40:27.772Z,63.65
2023-05-19T13:41:27.770Z,63.37
2023-05-19T13:42:27.786Z,64.56
2023-05-19T13:43:27.751Z,64.75
2023-05-19T13:44:27.786Z,64.23
2023-05-19T13:45:27.768Z,65.61
2023-05-19T13:47:30.701Z,65.83
2023-05-19T13:48:33.633Z,66.72
2023-05-19T13:49:34.476Z,65.16
2023-05-19T13:50:27.763Z,64.96
2023-05-19T13:51:27.772Z,64.32
2023-05-19T13:51:32.956Z,66.65
2023-05-19T13:52:31.765Z,65.15
2023-05-19T13:54:27.788Z,66.32
2023-05-19T13:55:27.769Z,65.32
2023-05-19T13:56:27.757Z,64.47
2023-05-19T13:57:27.766Z,66.64
2023-05-19T13:58:27.772Z,65.57
2023-05-19T13:59:27.764Z,65.46
2023-05-19T14:00:27.777Z,66.7
2023-05-19T14:01:27.773Z,67.25
2023-05-19T14:02:27.783Z,68.17
2023-05-19T14:03:27.837Z,65.78
2023-05-19T14:04:27.785Z,63.71
2023-05-19T14:05:27.865Z,63.27